Latest Coastal Weather Observations for Browse Island

IDD60701

Issued at 7:15 am CST Thursday 27 November 2014 (issued every 10 minutes, with the page automatically refreshed every 10 minutes)

About coastal observations | Map of coastal stations | Coastal observations for NT | Marine services | Other Formats
Station Details ID: 200784 Name: BROWSE ISLAND Lat: -14.11 Lon: 123.55 Height: 3.7 m
Data from the previous 72 hours. | See also: Recent months for locations in Northern Territory
Date/Time
CST
Temp

°C
Wind Pressure Rain
since 9am
mm
Weather Cloud Vis
km
Sea
Height
m
Swell
Dir
 
Speed
knots
Gust
knots
hPa Trend Height
m
Period
s
Dir
27/07:00am 29.5 N 9 11 1007.7 - - - - - - - - -
27/06:30am 29.4 N 11 12 1007.3 - - - - - - - - -
27/06:00am 29.8 N 11 14 1007.1 - - - - - - - - -
27/05:30am 29.4 N 10 14 1006.7 - - - - - - - - -
27/05:00am 29.4 NNE 11 13 1006.4 - - - - - - - - -
27/04:30am 29.5 N 11 14 1006.3 - - - - - - - - -
27/04:00am 29.6 N 11 14 1006.3 - - - - - - - - -
27/03:30am 29.4 N 13 15 1006.1 - - - - - - - - -
27/03:00am 29.5 N 13 16 1006.0 - - - - - - - - -
27/02:30am 29.4 NNE 11 14 1006.2 - - - - - - - - -
27/02:00am 29.1 NNE 11 13 1006.5 - - - - - - - - -
27/01:30am 29.2 NNE 12 15 1006.6 - - - - - - - - -
27/01:00am 29.0 NNE 11 14 1006.9 - - - - - - - - -
27/12:30am 29.0 NNE 11 13 1007.3 - - - - - - - - -
27/12:00am 29.2 NNE 10 12 1007.4 - - - - - - - - -
 
Date/Time
CST
Temp

°C
Wind Pressure Rain
since 9am
mm
Weather Cloud Vis
km
Sea
Height
m
Swell
Dir
 
Speed
knots
Gust
knots
hPa Trend Height
m
Period
s
Dir
26/11:30pm 29.0 NE 9 11 1007.7 - - - - - - - - -
26/11:00pm 29.1 NE 10 12 1007.6 - - - - - - - - -
26/10:30pm 29.3 NE 9 12 1007.5 - - - - - - - - -
26/10:00pm 29.1 NE 9 11 1007.2 - - - - - - - - -
26/09:30pm 29.0 ENE 7 9 1007.1 - - - - - - - - -
26/09:00pm 29.0 NE 7 8 1006.8 - - - - - - - - -
26/08:30pm 29.0 NE 7 9 1006.5 - - - - - - - - -
26/08:00pm 29.0 N 11 13 1006.0 - - - - - - - - -
26/07:30pm 28.8 N 13 15 1005.7 - - - - - - - - -
26/07:00pm 29.2 N 13 16 1005.2 - - - - - - - - -
26/06:30pm 29.4 N 11 13 1005.1 - - - - - - - - -
26/06:00pm 29.6 N 9 11 1005.0 - - - - - - - - -
26/05:30pm 29.6 N 9 11 1004.9 - - - - - - - - -
26/05:00pm 29.8 NNE 9 11 1004.7 - - - - - - - - -
26/04:30pm 29.9 N 8 10 1004.6 - - - - - - - - -
26/04:00pm 29.2 N 7 9 1004.5 - - - - - - - - -
26/03:30pm 30.2 NNE 9 13 1005.3 - - - - - - - - -
26/03:00pm 29.3 NNE 12 15 1005.8 - - - - - - - - -
26/02:30pm 28.1 NE 13 16 1006.3 - - - - - - - - -
26/02:00pm 28.1 NE 13 16 1006.7 - - - - - - - - -
26/01:30pm 27.8 NE 11 13 1007.0 - - - - - - - - -
26/01:00pm 27.0 ENE 16 21 1007.5 - - - - - - - - -
26/12:30pm 28.3 E 19 25 1008.0 - - - - - - - - -
26/12:24pm 29.2 E 16 22 1008.1 - - - - - - - - -
26/12:00pm 30.0 SE 10 12 1008.0 - - - - - - - - -
26/11:30am 29.5 SE 3 5 1008.4 - - - - - - - - -
26/11:00am 30.1 S 7 8 1008.0 - - - - - - - - -
26/10:30am 30.2 S 8 9 1008.0 - - - - - - - - -
26/10:00am 30.1 SSW 11 14 1007.9 - - - - - - - - -
26/09:30am 30.1 SSW 11 13 1007.7 - - - - - - - - -
26/09:00am 29.7 S 11 14 1007.9 - - - - - - - - -
26/08:30am 29.7 S 11 11 1007.7 - - - - - - - - -
26/08:00am 29.7 S 9 11 1007.4 - - - - - - - - -
26/07:30am 29.8 SSW 12 14 1007.4 - - - - - - - - -
26/07:00am 29.5 S 11 13 1007.1 - - - - - - - - -
26/06:30am 29.7 SSW 12 14 1006.5 - - - - - - - - -
26/06:00am 30.2 SSW 13 15 1006.3 - - - - - - - - -
26/05:30am 29.8 SSW 12 14 1006.2 - - - - - - - - -
26/05:00am 29.9 SW 11 13 1005.8 - - - - - - - - -
26/04:30am 29.9 WSW 11 13 1005.7 - - - - - - - - -
26/04:00am 30.1 SW 11 13 1005.3 - - - - - - - - -
26/03:30am 30.0 SW 10 12 1005.6 - - - - - - - - -
26/03:00am 30.0 WSW 12 14 1005.4 - - - - - - - - -
26/02:30am 30.1 WSW 8 9 1005.9 - - - - - - - - -
26/02:00am 30.1 WSW 8 10 1005.7 - - - - - - - - -
26/01:30am 30.2 SW 7 9 1006.4 - - - - - - - - -
26/01:00am 30.2 W 11 13 1006.4 - - - - - - - - -
26/12:30am 30.3 W 9 11 1006.6 - - - - - - - - -
26/12:00am 30.1 W 12 13 1006.5 - - - - - - - - -
 
Date/Time
CST
Temp

°C
Wind Pressure Rain
since 9am
mm
Weather Cloud Vis
km
Sea
Height
m
Swell
Dir
 
Speed
knots
Gust
knots
hPa Trend Height
m
Period
s
Dir
25/11:30pm 30.4 W 11 13 1006.7 - - - - - - - - -
25/11:00pm 30.4 WNW 11 12 1006.9 - - - - - - - - -
25/10:30pm 30.4 W 11 11 1006.8 - - - - - - - - -
25/10:00pm 30.2 W 9 11 1006.9 - - - - - - - - -
25/09:30pm 30.1 W 10 11 1006.6 - - - - - - - - -
25/09:00pm 30.0 WSW 10 11 1006.6 - - - - - - - - -
25/08:30pm 30.2 WSW 10 11 1006.3 - - - - - - - - -
25/08:00pm 30.3 WSW 10 11 1005.9 - - - - - - - - -
25/07:30pm 30.3 WSW 7 8 1006.0 - - - - - - - - -
25/07:00pm 30.5 WSW 9 10 1005.9 - - - - - - - - -
25/06:30pm 30.7 WSW 8 10 1005.6 - - - - - - - - -
25/06:00pm 30.7 WSW 8 9 1005.6 - - - - - - - - -
25/05:30pm 30.9 WSW 8 9 1005.8 - - - - - - - - -
25/05:00pm 30.9 WSW 8 9 1006.0 - - - - - - - - -
25/04:30pm 31.0 WSW 7 8 1006.0 - - - - - - - - -
25/04:00pm 31.0 WSW 6 8 1006.3 - - - - - - - - -
25/03:30pm 30.8 SW 7 8 1006.6 - - - - - - - - -
25/03:00pm 31.5 SW 6 7 1007.2 - - - - - - - - -
25/02:30pm 31.3 S 6 7 1007.5 - - - - - - - - -
25/02:00pm 30.8 S 5 6 1008.0 - - - - - - - - -
25/01:30pm 30.5 S 5 6 1008.2 - - - - - - - - -
25/01:00pm 30.6 SSE 5 6 1008.6 - - - - - - - - -
25/12:30pm 30.2 S 8 10 1008.7 - - - - - - - - -
25/12:00pm 29.9 S 9 10 1008.9 - - - - - - - - -
25/11:30am 30.4 SSE 10 12 1009.4 - - - - - - - - -
25/11:00am 30.3 SSE 11 14 1009.8 - - - - - - - - -
25/10:30am 30.4 SSE 11 13 1010.0 - - - - - - - - -
25/10:00am 30.4 S 9 11 1009.9 - - - - - - - - -
25/09:30am 30.2 S 7 9 1009.7 - - - - - - - - -
25/09:00am 30.0 SSW 6 7 1009.6 - - - - - - - - -
25/08:30am 30.2 WSW 5 6 1009.1 - - - - - - - - -
25/08:00am 29.9 W 6 7 1008.9 - - - - - - - - -
25/07:30am 30.0 W 6 7 1008.8 - - - - - - - - -
25/07:00am 29.8 W 8 9 1008.2 - - - - - - - - -
25/06:30am 29.8 WNW 7 8 1008.3 - - - - - - - - -
25/06:00am 29.9 WNW 9 10 1007.8 - - - - - - - - -
25/05:30am 29.9 WNW 10 11 1007.1 - - - - - - - - -
25/05:00am 29.9 WNW 8 9 1007.0 - - - - - - - - -
25/04:30am 29.9 WNW 11 12 1006.8 - - - - - - - - -
25/04:00am 29.9 WNW 9 11 1006.9 - - - - - - - - -
25/03:30am 30.0 WNW 9 11 1007.0 - - - - - - - - -
25/03:00am 30.0 WNW 8 9 1007.1 - - - - - - - - -
25/02:30am 30.0 WNW 7 8 1007.5 - - - - - - - - -
25/02:00am 30.2 W 7 9 1007.8 - - - - - - - - -
25/01:30am 30.2 W 9 10 1008.2 - - - - - - - - -
25/01:00am 30.2 W 8 9 1008.7 - - - - - - - - -
25/12:30am 30.2 W 7 8 1009.1 - - - - - - - - -
25/12:00am 30.4 W 7 8 1009.2 - - - - - - - - -
 
Date/Time
CST
Temp

°C
Wind Pressure Rain
since 9am
mm
Weather Cloud Vis
km
Sea
Height
m
Swell
Dir
 
Speed
knots
Gust
knots
hPa Trend Height
m
Period
s
Dir
24/11:30pm 30.5 W 7 7 1009.3 - - - - - - - - -
24/11:00pm 30.3 WSW 6 7 1009.3 - - - - - - - - -
24/10:30pm 30.4 WSW 6 7 1009.3 - - - - - - - - -
24/10:00pm 30.5 SW 5 5 1009.2 - - - - - - - - -
24/09:30pm 30.7 SW 5 6 1009.1 - - - - - - - - -
24/09:00pm 30.6 SW 5 6 1008.8 - - - - - - - - -
24/08:30pm 30.7 WSW 6 7 1008.5 - - - - - - - - -
24/08:00pm 30.6 SW 6 7 1008.2 - - - - - - - - -
24/07:30pm 30.6 SW 5 6 1007.7 - - - - - - - - -
24/07:00pm 30.8 SW 6 6 1007.1 - - - - - - - - -
24/06:30pm 30.9 SW 5 6 1006.9 - - - - - - - - -
24/06:00pm 30.9 SW 5 6 1006.8 - - - - - - - - -
24/05:30pm 30.9 WSW 5 6 1006.9 - - - - - - - - -
24/05:00pm 31.4 WSW 5 6 1006.9 - - - - - - - - -
24/04:30pm 31.0 SW 5 6 1007.2 - - - - - - - - -
24/04:00pm 31.1 SSW 5 6 1007.5 - - - - - - - - -
24/03:30pm 30.5 SSW 6 7 1007.7 - - - - - - - - -
24/03:00pm 30.7 S 6 7 1008.1 - - - - - - - - -
24/02:30pm 30.6 S 7 8 1008.6 - - - - - - - - -
24/02:00pm 30.1 S 8 9 1008.9 - - - - - - - - -
24/01:30pm 30.1 S 9 11 1009.3 - - - - - - - - -
24/01:00pm 30.3 S 9 11 1009.6 - - - - - - - - -
24/12:30pm 29.8 S 9 11 1009.9 - - - - - - - - -
24/12:00pm 30.5 S 8 10 1010.3 - - - - - - - - -
24/11:30am 30.0 S 8 9 1010.6 - - - - - - - - -
24/11:00am 30.1 S 8 10 1010.7 - - - - - - - - -
24/10:30am 29.7 S 9 11 1010.9 - - - - - - - - -
24/10:00am 29.6 S 9 10 1011.1 - - - - - - - - -
24/09:30am 29.7 S 9 11 1011.1 - - - - - - - - -
24/09:00am 29.6 S 8 10 1011.0 - - - - - - - - -

Other Formats:

Comma delimited format used in spreadsheet applications
http://www.bom.gov.au/fwo/IDD60701/IDD60701.94103.axf

JavaScript Object Notation format (JSON) in row-major order
http://www.bom.gov.au/fwo/IDD60701/IDD60701.94103.json